Hovedside
METAR-TAF:

METAR-TAF

Lufthavner :

Tarawa, Kiribati

breddegrad: 01-21N, lengdegrad: 172-55E, høyde over havet: 2 m

Gjeldene værobservasjon

Denne rapporten ble laget for 48 minutter siden, klokken 21:00 UTC
Vind 10 kt fra Øst-nordøst
Temperatur 30°C
Luftfuktighet 75%
Trykk 1008 hPa
Sikt 10 km eller mer
Få skyer i en høyde av 2000 ft

METAR: NGTA 252100Z 07010KT 9999 FEW020 30/25 Q1008

Tid: 11:48 (21:48 UTC)

Varsel

Denne rapporten ble laget for 4 timer og 40 minutter siden, klokken 17:08 UTC
Varsel gyldig fra 25. klokken 18 UTC til 26. klokken 18 UTC
Vind 8 kt fra Øst
Sikt 10 km eller mer
Få skyer i en høyde av 2000 ft

TAF: NGTA 251708Z 2518/2618 08008KT 9999 FEW020

Værobservasjoner og værvarsel for over 4000 flyplasser (METAR- og TAF-rapporter).

Tilgjengelige stasjoner er representert av de røde og gule prikkene på kartet.

Hold musepekeren over prikken for å se navnet på stasjonen.

Klikk så for å se værobservasjoner og -varsler.

For å forandre kartet kan du klikke på den grønne knappen med svart kryss for å zoome inn, på den grønne knappen med strek for å zoome ut, eller på de grønne pilene for å se tilstøtende kart.


METAR-TAF: